Time;durP1;ratioP1;P1;durP2;ratioP2;P2;SDS_P1;SDS_P2;PMS_P1;PMS_P2;Temp;Humidity;BMP_temperature;BMP_pressure;BME280_temperature;BME280_humidity;BME280_pressure;Samples;Min_cycle;Max_cycle;Signal;HPM_P1;HPM_P2
2022/01/31 00:01:49;;;;;;;10.87;3.87;;;4.20;99.90;;;;;;5066584;28;20048;-85
2022/01/31 00:04:16;;;;;;;5.80;3.37;;;3.30;99.90;;;;;;5020978;28;20399;-85
2022/01/31 00:06:47;;;;;;;;;;;2.30;99.90;;;;;;5043406;28;20430;-84
2022/01/31 00:09:15;;;;;;;10.63;3.03;;;3.30;99.90;;;;;;5039967;28;19921;-84
2022/01/31 00:11:44;;;;;;;12.65;3.20;;;4.30;99.90;;;;;;5042214;28;20480;-84
2022/01/31 00:14:29;;;;;;;7.40;3.85;;;3.30;99.90;;;;;;5061522;28;20037;-84
2022/01/31 00:16:55;;;;;;;17.15;3.90;;;3.30;99.90;;;;;;5023534;28;20040;-85
2022/01/31 00:19:21;;;;;;;7.53;3.20;;;3.30;99.90;;;;;;5019941;28;20488;-84
2022/01/31 00:21:46;;;;;;;10.77;3.50;;;3.20;99.90;;;;;;5035903;28;20131;-84
2022/01/31 00:24:12;;;;;;;12.53;3.20;;;3.30;99.90;;;;;;5058476;28;20042;-84
2022/01/31 00:26:38;;;;;;;9.40;2.60;;;3.30;99.90;;;;;;5044419;28;20160;-84
2022/01/31 00:29:03;;;;;;;4.15;2.95;;;3.30;99.90;;;;;;5037497;28;20047;-84
2022/01/31 00:31:31;;;;;;;5.43;2.80;;;3.30;99.90;;;;;;5056589;28;20530;-84
2022/01/31 00:33:56;;;;;;;;;;;4.30;99.90;;;;;;5054999;28;20041;-85
2022/01/31 00:36:22;;;;;;;9.25;2.95;;;3.30;99.90;;;;;;5045779;28;20401;-84
2022/01/31 00:38:48;;;;;;;6.90;3.85;;;3.30;99.90;;;;;;5038254;28;20048;-83
2022/01/31 00:41:16;;;;;;;10.20;4.20;;;3.30;99.90;;;;;;5050466;28;20045;-86
2022/01/31 00:43:44;;;;;;;13.98;3.78;;;4.10;99.90;;;;;;5059237;28;20036;-84
2022/01/31 00:46:12;;;;;;;6.35;3.70;;;3.30;99.90;;;;;;5041861;28;20041;-84
2022/01/31 00:48:44;;;;;;;11.30;4.05;;;4.60;99.90;;;;;;5046871;28;20044;-86
2022/01/31 00:51:10;;;;;;;14.80;5.03;;;4.50;99.90;;;;;;5048558;28;20050;-83
2022/01/31 00:53:36;;;;;;;12.33;4.83;;;3.30;99.90;;;;;;5035701;28;20044;-84
2022/01/31 00:56:03;;;;;;;10.88;5.07;;;2.70;99.90;;;;;;5036526;28;20098;-84
2022/01/31 00:58:29;;;;;;;14.30;4.47;;;3.40;99.90;;;;;;5053405;28;20053;-84
2022/01/31 01:00:55;;;;;;;14.37;3.93;;;3.30;99.90;;;;;;5051032;28;20044;-84
2022/01/31 01:03:20;;;;;;;18.30;5.73;;;4.10;99.90;;;;;;5053573;28;20072;-84
2022/01/31 01:05:46;;;;;;;8.98;4.18;;;3.20;99.90;;;;;;5031546;28;20068;-85
2022/01/31 01:08:12;;;;;;;7.10;4.37;;;3.50;99.90;;;;;;5035003;28;20087;-84
2022/01/31 01:10:38;;;;;;;7.60;5.43;;;3.30;99.90;;;;;;5057299;28;20043;-85
2022/01/31 01:13:04;;;;;;;8.88;5.22;;;3.30;99.90;;;;;;5025075;28;20048;-85
2022/01/31 01:15:30;;;;;;;15.27;6.18;;;2.20;99.90;;;;;;5042887;28;20040;-85
2022/01/31 01:17:58;;;;;;;7.93;4.78;;;4.30;99.90;;;;;;5054696;28;20046;-85
2022/01/31 01:20:24;;;;;;;17.85;5.07;;;4.70;99.90;;;;;;5047250;28;20128;-85
2022/01/31 01:22:50;;;;;;;14.50;4.75;;;4.80;99.90;;;;;;5052899;28;20040;-85
2022/01/31 01:25:16;;;;;;;11.03;4.60;;;3.40;99.90;;;;;;5050815;28;20037;-85
2022/01/31 01:27:46;;;;;;;14.30;5.10;;;3.40;99.90;;;;;;5058797;28;20055;-85
2022/01/31 01:30:14;;;;;;;9.45;4.55;;;3.40;99.90;;;;;;5023682;28;20049;-86
2022/01/31 01:32:58;;;;;;;13.48;6.00;;;3.40;99.90;;;;;;5055689;28;20064;-85
2022/01/31 01:35:26;;;;;;;8.35;4.25;;;4.00;99.90;;;;;;5044182;28;20372;-86
2022/01/31 01:37:52;;;;;;;13.85;5.63;;;3.30;99.90;;;;;;5017017;28;20380;-86
2022/01/31 01:40:18;;;;;;;16.53;5.30;;;3.20;99.90;;;;;;5047651;28;20151;-86
2022/01/31 01:42:43;;;;;;;9.17;5.27;;;2.60;99.90;;;;;;5030727;28;20052;-85
2022/01/31 01:45:10;;;;;;;12.13;5.67;;;4.30;99.90;;;;;;5038771;28;20041;-86
2022/01/31 01:47:36;;;;;;;14.63;7.00;;;4.30;99.90;;;;;;5049844;28;20235;-86
2022/01/31 01:50:04;;;;;;;15.75;6.38;;;3.20;99.90;;;;;;5039098;28;20326;-86
2022/01/31 01:52:29;;;;;;;;;;;3.00;99.90;;;;;;5043144;28;20052;-86
2022/01/31 01:54:55;;;;;;;13.73;5.93;;;2.90;99.90;;;;;;5043559;28;19921;-87
2022/01/31 01:57:23;;;;;;;12.60;7.57;;;3.20;99.90;;;;;;5060767;28;20088;-86
2022/01/31 01:59:54;;;;;;;7.97;5.20;;;2.80;99.90;;;;;;5057993;28;20045;-87
2022/01/31 02:02:20;;;;;;;9.48;6.03;;;3.80;99.90;;;;;;5042739;28;20086;-86
2022/01/31 02:04:46;;;;;;;9.52;5.80;;;3.90;99.90;;;;;;5063217;28;20044;-87
2022/01/31 02:07:14;;;;;;;16.57;6.37;;;2.70;99.90;;;;;;5036581;28;20082;-86
2022/01/31 02:09:45;;;;;;;8.82;5.13;;;2.80;99.90;;;;;;5067632;28;20053;-86
2022/01/31 02:12:12;;;;;;;12.55;6.78;;;3.80;99.90;;;;;;5025824;28;20136;-86
2022/01/31 02:14:38;;;;;;;12.35;7.30;;;2.50;99.90;;;;;;5057182;28;20041;-87
2022/01/31 02:17:07;;;;;;;10.82;6.50;;;2.50;99.90;;;;;;5026211;28;20044;-88
2022/01/31 02:19:35;;;;;;;7.65;5.30;;;2.50;99.90;;;;;;5058842;28;20071;-88
2022/01/31 02:22:01;;;;;;;15.00;7.65;;;2.60;99.90;;;;;;5046913;28;20041;-88
2022/01/31 02:24:30;;;;;;;9.77;6.88;;;2.60;99.90;;;;;;5048809;28;20492;-88
2022/01/31 02:26:56;;;;;;;7.85;5.53;;;3.60;99.90;;;;;;5053832;28;20124;-88
2022/01/31 02:29:22;;;;;;;9.05;6.78;;;2.50;99.90;;;;;;5037155;28;20083;-88
2022/01/31 02:31:49;;;;;;;19.13;7.57;;;3.70;99.90;;;;;;5036690;28;20073;-88
2022/01/31 02:34:19;;;;;;;23.05;7.40;;;2.50;99.90;;;;;;5056295;28;20053;-88
2022/01/31 02:36:45;;;;;;;13.35;6.63;;;3.80;99.90;;;;;;5037883;28;20051;-88
2022/01/31 02:39:10;;;;;;;11.73;7.70;;;2.50;99.90;;;;;;5045065;28;20044;-88
2022/01/31 02:41:41;;;;;;;15.25;6.45;;;3.00;99.90;;;;;;5045596;28;20053;-88
2022/01/31 02:44:13;;;;;;;12.73;7.15;;;2.50;99.90;;;;;;5028529;28;20041;-88
2022/01/31 02:46:45;;;;;;;17.70;6.63;;;1.80;99.90;;;;;;5073474;28;20084;-88
2022/01/31 02:49:15;;;;;;;9.82;7.40;;;3.10;99.90;;;;;;5041923;28;20131;-88
2022/01/31 02:51:46;;;;;;;11.73;6.60;;;3.70;99.90;;;;;;5040204;28;20499;-89
2022/01/31 02:54:14;;;;;;;10.40;5.82;;;2.50;99.90;;;;;;5045351;28;20044;-89
2022/01/31 02:56:41;;;;;;;9.25;5.07;;;3.60;99.90;;;;;;5061805;28;20052;-88
2022/01/31 02:59:07;;;;;;;7.60;6.65;;;2.60;99.90;;;;;;5048811;28;20068;-88
2022/01/31 03:01:37;;;;;;;7.97;5.18;;;3.70;99.90;;;;;;5039281;28;20510;-88
2022/01/31 03:04:04;;;;;;;11.13;5.95;;;2.60;99.90;;;;;;5038203;28;20402;-89
2022/01/31 03:06:32;;;;;;;10.57;5.30;;;2.70;99.90;;;;;;5063860;28;20050;-88
2022/01/31 03:08:58;;;;;;;10.05;5.72;;;4.00;99.90;;;;;;5039895;28;20072;-88
2022/01/31 03:11:23;;;;;;;7.00;4.67;;;2.70;99.90;;;;;;5049944;28;20075;-88
2022/01/31 03:13:49;;;;;;;7.67;4.87;;;4.00;99.90;;;;;;5062209;28;20090;-88
2022/01/31 03:16:15;;;;;;;5.15;4.18;;;2.70;99.90;;;;;;5062850;28;20049;-88
2022/01/31 03:18:40;;;;;;;10.25;4.90;;;1.50;99.90;;;;;;5052947;28;20034;-89
2022/01/31 03:21:12;;;;;;;5.53;3.87;;;4.00;99.90;;;;;;5043405;28;20045;-89
2022/01/31 03:23:50;;;;;;;3.65;2.80;;;2.80;99.90;;;;;;5052544;28;20505;-88
2022/01/31 03:26:16;;;;;;;6.05;4.80;;;3.00;99.90;;;;;;5051845;28;20049;-88
2022/01/31 03:28:42;;;;;;;8.05;4.55;;;3.90;99.90;;;;;;5041952;28;20045;-90
2022/01/31 03:31:08;;;;;;;6.55;4.35;;;2.80;99.90;;;;;;5020088;28;20052;-90
2022/01/31 03:33:34;;;;;;;5.50;3.93;;;4.20;99.90;;;;;;5024811;28;20122;-90
2022/01/31 03:36:00;;;;;;;6.30;3.87;;;2.80;99.90;;;;;;5019569;28;20044;-89
2022/01/31 03:38:26;;;;;;;12.77;3.55;;;3.40;99.90;;;;;;5055106;28;20664;-90
2022/01/31 03:40:51;;;;;;;6.65;4.30;;;3.10;99.90;;;;;;5036393;28;20041;-89
2022/01/31 03:43:17;;;;;;;3.90;3.33;;;3.10;99.90;;;;;;5051628;28;20110;-88
2022/01/31 03:45:43;;;;;;;12.32;5.22;;;3.10;99.90;;;;;;5037299;28;20119;-90
2022/01/31 03:48:12;;;;;;;9.48;4.10;;;3.20;99.90;;;;;;5035721;28;20041;-90
2022/01/31 03:50:40;;;;;;;11.68;3.75;;;3.80;99.90;;;;;;5065857;28;20499;-89
2022/01/31 03:53:06;;;;;;;5.68;4.70;;;3.50;99.90;;;;;;5059550;28;20041;-89
2022/01/31 03:55:31;;;;;;;18.47;4.30;;;5.00;99.90;;;;;;5045582;28;20058;-90
2022/01/31 03:57:57;;;;;;;14.55;3.70;;;4.30;99.90;;;;;;5037195;28;20111;-90
2022/01/31 04:00:25;;;;;;;8.68;4.40;;;4.30;99.90;;;;;;5076578;28;20041;-89
2022/01/31 04:02:51;;;;;;;9.50;4.55;;;4.90;99.90;;;;;;5048286;28;20053;-90
2022/01/31 04:05:20;;;;;;;8.07;4.47;;;4.00;99.90;;;;;;5065246;28;20523;-90
2022/01/31 04:07:48;;;;;;;16.27;5.18;;;4.20;99.90;;;;;;5029553;28;20106;-89
2022/01/31 04:10:14;;;;;;;23.85;5.32;;;4.20;99.90;;;;;;5057333;28;20136;-89
2022/01/31 04:12:40;;;;;;;9.33;3.67;;;4.20;99.90;;;;;;5041680;28;20551;-89
2022/01/31 04:15:06;;;;;;;6.18;3.90;;;4.40;99.90;;;;;;5007588;28;20123;-89
2022/01/31 04:17:33;;;;;;;12.52;3.05;;;4.40;99.90;;;;;;5076440;28;20430;-89
2022/01/31 04:20:07;;;;;;;12.48;4.32;;;4.50;99.90;;;;;;5045197;28;20049;-90
2022/01/31 04:22:37;;;;;;;15.50;3.83;;;5.60;99.90;;;;;;5039318;28;20468;-90
2022/01/31 04:25:06;;;;;;;6.82;3.53;;;4.60;99.90;;;;;;5051009;28;20045;-90
2022/01/31 04:27:44;;;;;;;9.55;3.17;;;4.70;99.90;;;;;;5054994;28;20510;-90
2022/01/31 04:30:12;;;;;;;12.18;2.90;;;4.70;99.90;;;;;;5060170;28;20093;-90
2022/01/31 04:32:38;;;;;;;8.10;3.13;;;4.70;99.90;;;;;;5050932;28;20038;-90
2022/01/31 04:35:07;;;;;;;11.95;2.03;;;4.80;99.90;;;;;;5042609;28;20037;-90
2022/01/31 04:37:36;;;;;;;6.73;2.47;;;4.70;99.90;;;;;;5054247;28;20053;-90
2022/01/31 04:40:02;;;;;;;5.50;1.42;;;4.60;99.90;;;;;;5040720;28;20329;-90
2022/01/31 04:42:27;;;;;;;3.80;1.70;;;4.50;99.90;;;;;;5018289;28;20042;-90
2022/01/31 04:45:00;;;;;;;7.10;2.03;;;4.50;99.90;;;;;;5047457;28;20338;-90
2022/01/31 04:47:26;;;;;;;3.78;1.95;;;4.60;99.90;;;;;;5021179;28;20049;-90
2022/01/31 04:49:51;;;;;;;8.17;3.30;;;4.80;99.90;;;;;;5037671;28;20107;-90
2022/01/31 04:52:20;;;;;;;4.50;2.17;;;4.50;99.90;;;;;;5060357;28;20069;-90
2022/01/31 04:54:46;;;;;;;3.60;2.58;;;4.50;99.90;;;;;;5033374;28;20041;-90
2022/01/31 04:57:16;;;;;;;8.23;2.73;;;4.40;99.90;;;;;;5053296;28;20548;-89
2022/01/31 04:59:43;;;;;;;5.53;2.13;;;4.50;99.90;;;;;;5056328;28;20061;-90
2022/01/31 05:02:09;;;;;;;11.63;2.58;;;4.60;99.90;;;;;;5062960;28;20533;-90
2022/01/31 05:04:35;;;;;;;9.25;2.60;;;4.50;99.90;;;;;;5037732;28;20040;-90
2022/01/31 05:07:03;;;;;;;10.47;3.07;;;4.40;99.90;;;;;;5020423;28;20091;-90
2022/01/31 05:09:32;;;;;;;4.72;2.88;;;4.50;99.90;;;;;;5037621;28;20041;-89
2022/01/31 05:11:57;;;;;;;7.30;2.30;;;5.70;99.90;;;;;;5043457;28;20041;-89
2022/01/31 05:14:23;;;;;;;12.33;4.17;;;4.30;99.90;;;;;;5054753;28;20444;-89
2022/01/31 05:16:49;;;;;;;8.87;2.37;;;4.40;99.90;;;;;;5035642;28;20045;-89
2022/01/31 05:19:15;;;;;;;4.10;2.47;;;4.80;99.90;;;;;;5035249;28;20041;-88
2022/01/31 05:21:41;;;;;;;11.95;2.55;;;4.30;99.90;;;;;;5050343;28;20107;-89
2022/01/31 05:24:07;;;;;;;8.77;2.47;;;4.50;99.90;;;;;;5065607;28;20047;-89
2022/01/31 05:26:35;;;;;;;4.32;2.80;;;4.30;99.90;;;;;;5041629;28;20079;-89
2022/01/31 05:29:01;;;;;;;9.90;3.33;;;5.70;99.90;;;;;;5060017;28;20033;-88
2022/01/31 05:31:27;;;;;;;8.97;2.37;;;5.80;99.90;;;;;;5049290;28;20048;-88
2022/01/31 05:33:52;;;;;;;4.93;1.38;;;4.40;99.90;;;;;;5040066;28;20052;-89
2022/01/31 05:36:20;;;;;;;13.00;2.27;;;4.40;99.90;;;;;;5021032;28;20172;-88
2022/01/31 05:38:46;;;;;;;2.28;1.25;;;3.50;99.90;;;;;;5054510;28;20053;-89
2022/01/31 05:41:18;;;;;;;9.57;1.87;;;4.30;99.90;;;;;;5049979;28;20404;-89
2022/01/31 05:43:44;;;;;;;3.95;1.48;;;5.30;99.90;;;;;;5056381;28;20048;-89
2022/01/31 05:46:10;;;;;;;1.13;0.93;;;4.10;99.90;;;;;;5053429;28;20388;-89
2022/01/31 05:48:38;;;;;;;2.10;1.08;;;4.00;99.90;;;;;;5056082;28;20045;-89
2022/01/31 05:51:27;;;;;;;1.00;0.90;;;4.10;99.90;;;;;;5039442;28;20080;-89
2022/01/31 05:53:52;;;;;;;2.05;1.40;;;4.00;99.90;;;;;;5058526;28;20056;-89
2022/01/31 05:56:19;;;;;;;2.73;1.30;;;3.90;99.90;;;;;;5042391;28;20037;-88
2022/01/31 05:58:45;;;;;;;1.45;1.17;;;4.00;99.90;;;;;;5060212;28;20103;-89
2022/01/31 06:01:11;;;;;;;1.93;0.80;;;3.00;99.90;;;;;;5043458;28;20041;-89
2022/01/31 06:03:38;;;;;;;6.82;1.38;;;3.80;99.90;;;;;;5059474;28;20045;-88
2022/01/31 06:06:04;;;;;;;2.30;1.25;;;3.90;99.90;;;;;;5018331;28;20046;-89
2022/01/31 06:08:30;;;;;;;8.20;1.42;;;3.80;99.90;;;;;;5038158;28;20072;-89
2022/01/31 06:10:56;;;;;;;3.70;1.17;;;4.80;99.90;;;;;;5035493;28;20399;-89
2022/01/31 06:13:28;;;;;;;1.87;1.30;;;3.80;99.90;;;;;;5024434;28;20123;-88
2022/01/31 06:15:54;;;;;;;1.08;0.70;;;3.80;99.90;;;;;;5052790;28;20048;-89
2022/01/31 06:18:20;;;;;;;6.23;1.23;;;3.80;99.90;;;;;;5044951;28;20036;-89
2022/01/31 06:20:45;;;;;;;6.25;1.40;;;3.80;99.90;;;;;;5043984;28;20447;-89
2022/01/31 06:23:12;;;;;;;1.73;0.90;;;3.80;99.90;;;;;;5036877;28;20048;-89
2022/01/31 06:25:46;;;;;;;3.20;1.33;;;3.90;99.90;;;;;;5045214;28;20033;-89
2022/01/31 06:28:12;;;;;;;3.08;0.70;;;4.60;99.90;;;;;;5038042;28;20041;-88
2022/01/31 06:30:38;;;;;;;8.97;1.80;;;5.10;99.90;;;;;;5058708;28;20045;-88
2022/01/31 06:33:03;;;;;;;6.17;1.90;;;3.90;99.90;;;;;;5032367;28;20131;-89
2022/01/31 06:35:29;;;;;;;9.57;1.58;;;5.20;99.90;;;;;;5038780;28;20048;-89
2022/01/31 06:37:55;;;;;;;6.00;2.07;;;4.00;99.90;;;;;;5050194;28;20178;-89
2022/01/31 06:40:24;;;;;;;8.90;2.77;;;4.00;99.90;;;;;;5046846;28;20469;-89
2022/01/31 06:42:50;;;;;;;7.82;1.35;;;3.90;99.90;;;;;;5032357;28;20408;-89
2022/01/31 06:45:15;;;;;;;9.20;1.73;;;4.40;99.90;;;;;;5035419;28;20037;-89
2022/01/31 06:47:41;;;;;;;5.00;1.80;;;3.90;99.90;;;;;;5037445;28;20033;-89
2022/01/31 06:50:09;;;;;;;13.40;1.93;;;4.70;99.90;;;;;;5042800;28;20480;-89
2022/01/31 06:52:36;;;;;;;9.02;1.98;;;3.90;99.90;;;;;;5036387;28;20457;-89
2022/01/31 06:55:05;;;;;;;7.35;2.50;;;3.90;99.90;;;;;;5036684;28;20036;-89
2022/01/31 06:57:34;;;;;;;7.78;1.70;;;3.90;99.90;;;;;;5065735;28;20072;-88
2022/01/31 07:00:03;;;;;;;4.78;2.00;;;4.00;99.90;;;;;;5058478;28;20056;-89
2022/01/31 07:02:30;;;;;;;5.68;2.00;;;4.10;99.90;;;;;;5059348;28;20071;-88
2022/01/31 07:04:56;;;;;;;5.10;1.80;;;5.00;99.90;;;;;;5059993;28;20511;-89
2022/01/31 07:07:21;;;;;;;8.55;1.95;;;4.10;99.90;;;;;;5059763;28;20044;-89
2022/01/31 07:09:47;;;;;;;4.23;1.83;;;4.20;99.90;;;;;;5025313;28;20402;-89
2022/01/31 07:12:16;;;;;;;2.57;1.93;;;4.20;99.90;;;;;;5064188;28;20088;-89
2022/01/31 07:14:42;;;;;;;7.15;1.88;;;5.30;99.90;;;;;;5068667;28;20068;-89
2022/01/31 07:17:07;;;;;;;3.57;1.73;;;4.20;99.90;;;;;;5068300;28;20076;-89
2022/01/31 07:19:36;;;;;;;10.35;1.98;;;4.20;99.90;;;;;;5027342;28;20517;-89
2022/01/31 07:22:09;;;;;;;6.80;1.55;;;5.20;99.90;;;;;;5062442;28;20048;-89
2022/01/31 07:27:01;;;;;;;6.07;1.57;;;4.20;99.90;;;;;;5054743;28;20041;-89
2022/01/31 07:29:27;;;;;;;5.13;2.27;;;4.20;99.90;;;;;;5037589;28;20068;-89
2022/01/31 07:31:53;;;;;;;6.43;1.55;;;4.20;99.90;;;;;;5044336;28;20048;-89
2022/01/31 07:34:20;;;;;;;6.30;1.40;;;5.40;99.90;;;;;;5057365;28;20128;-86
2022/01/31 07:36:46;;;;;;;7.75;1.60;;;4.30;99.90;;;;;;5049591;28;20073;-87
2022/01/31 07:39:13;;;;;;;5.53;1.27;;;4.20;99.90;;;;;;5056884;28;20044;-86
2022/01/31 07:41:39;;;;;;;3.42;1.15;;;5.10;99.90;;;;;;5055571;28;20535;-83
2022/01/31 07:44:06;;;;;;;4.75;1.17;;;4.80;99.90;;;;;;5056461;28;20107;-86
2022/01/31 07:46:31;;;;;;;2.38;1.48;;;4.20;99.90;;;;;;5051994;28;20045;-87
2022/01/31 07:48:57;;;;;;;6.88;1.30;;;4.20;99.90;;;;;;5045205;28;20096;-87
2022/01/31 07:51:23;;;;;;;5.73;1.63;;;4.20;99.90;;;;;;5062540;28;20041;-89
2022/01/31 07:53:49;;;;;;;9.37;1.97;;;4.20;99.90;;;;;;5032859;28;20052;-82
2022/01/31 07:56:16;;;;;;;2.00;1.47;;;5.60;99.90;;;;;;5044395;28;20036;-85
2022/01/31 07:58:42;;;;;;;7.00;1.70;;;4.20;99.90;;;;;;5055006;28;20059;-82
2022/01/31 08:01:08;;;;;;;7.70;1.60;;;4.20;99.90;;;;;;5051836;28;20037;-85
2022/01/31 08:03:35;;;;;;;13.70;3.65;;;4.90;99.90;;;;;;5054192;28;20052;-83
2022/01/31 08:06:02;;;;;;;5.60;1.52;;;4.20;99.90;;;;;;5059172;28;20069;-85
2022/01/31 08:08:29;;;;;;;;;;;4.20;99.90;;;;;;5067518;28;20433;-84
2022/01/31 08:10:59;;;;;;;6.43;2.10;;;4.20;99.90;;;;;;5064354;28;20379;-83
2022/01/31 08:13:26;;;;;;;12.57;1.90;;;4.20;99.90;;;;;;5065666;28;20051;-91
2022/01/31 08:16:09;;;;;;;7.88;1.33;;;4.20;99.90;;;;;;5050174;28;20112;-84
2022/01/31 08:18:44;;;;;;;6.65;1.90;;;4.20;99.90;;;;;;5045092;28;20087;-85
2022/01/31 08:21:14;;;;;;;5.63;2.00;;;4.20;99.90;;;;;;5039120;28;20040;-85
2022/01/31 08:23:41;;;;;;;9.60;2.20;;;4.30;99.90;;;;;;5059009;28;20045;-82
2022/01/31 08:26:10;;;;;;;;;;;4.30;99.90;;;;;;5039298;28;20041;-83
2022/01/31 08:28:45;;;;;;;9.63;2.20;;;4.40;99.90;;;;;;5066341;28;19921;-87
2022/01/31 08:31:24;;;;;;;4.03;1.80;;;4.40;99.90;;;;;;5022723;28;20463;-82
2022/01/31 08:34:03;;;;;;;6.10;1.80;;;4.50;99.90;;;;;;5079609;28;20045;-83
2022/01/31 08:36:34;;;;;;;9.80;2.33;;;4.50;99.90;;;;;;5062936;28;20071;-83
2022/01/31 08:39:08;;;;;;;7.57;2.17;;;4.50;99.90;;;;;;5064614;28;20048;-84
2022/01/31 08:41:41;;;;;;;4.93;2.40;;;4.50;99.90;;;;;;5034151;28;20049;-87
2022/01/31 08:44:09;;;;;;;7.15;2.63;;;5.10;99.90;;;;;;5056904;28;20053;-84
2022/01/31 08:46:39;;;;;;;5.30;2.17;;;4.60;99.90;;;;;;5053177;28;20512;-84
2022/01/31 08:49:06;;;;;;;10.35;1.90;;;4.60;99.90;;;;;;5061295;28;20056;-85
2022/01/31 08:51:32;;;;;;;6.97;2.33;;;4.60;99.90;;;;;;5032784;28;20043;-85
2022/01/31 08:53:58;;;;;;;6.40;2.67;;;5.20;99.90;;;;;;5042868;28;20041;-84
2022/01/31 08:56:23;;;;;;;4.95;2.00;;;4.70;99.90;;;;;;5022538;28;20048;-85
2022/01/31 08:58:50;;;;;;;10.97;1.63;;;5.90;99.90;;;;;;5065566;28;20048;-85
2022/01/31 09:01:19;;;;;;;12.52;1.98;;;4.80;99.90;;;;;;5012568;28;20457;-86
2022/01/31 09:06:21;;;;;;;7.78;1.80;;;5.40;99.90;;;;;;5057061;28;20175;-85
2022/01/31 09:08:47;;;;;;;1.77;1.17;;;4.90;99.90;;;;;;5059488;28;20042;-85
2022/01/31 09:11:13;;;;;;;8.60;2.20;;;4.90;99.90;;;;;;5056522;28;20047;-84
2022/01/31 09:13:40;;;;;;;6.63;1.63;;;5.00;99.90;;;;;;5056844;28;20041;-84
2022/01/31 09:16:07;;;;;;;11.57;1.63;;;5.00;99.90;;;;;;5042768;28;20088;-84
2022/01/31 09:18:33;;;;;;;4.18;1.85;;;5.10;99.90;;;;;;5062361;28;20032;-84
2022/01/31 09:21:01;;;;;;;5.97;1.88;;;5.20;99.90;;;;;;5040291;28;20051;-86
2022/01/31 09:23:27;;;;;;;4.43;1.70;;;5.20;99.90;;;;;;5042968;28;20135;-86
2022/01/31 09:25:54;;;;;;;9.35;2.13;;;5.40;99.90;;;;;;5042324;28;20047;-83
2022/01/31 09:28:21;;;;;;;9.02;2.03;;;5.50;99.90;;;;;;5027223;28;20059;-88
2022/01/31 09:30:47;;;;;;;3.47;1.67;;;5.60;99.90;;;;;;5037372;28;20103;-88
2022/01/31 09:33:17;;;;;;;9.27;1.40;;;5.80;99.90;;;;;;5035968;28;20483;-85
2022/01/31 09:35:43;;;;;;;6.88;2.08;;;5.90;99.90;;;;;;5045799;28;20427;-85
2022/01/31 09:38:12;;;;;;;2.33;1.38;;;6.00;99.90;;;;;;5020110;28;20323;-86
2022/01/31 09:40:38;;;;;;;6.43;1.30;;;5.00;99.90;;;;;;5049587;28;20430;-86
2022/01/31 09:46:03;;;;;;;6.50;1.70;;;6.00;99.90;;;;;;5056190;28;20063;-86
2022/01/31 09:51:09;;;;;;;2.15;1.40;;;6.10;99.90;;;;;;5065266;28;20045;-86
2022/01/31 09:53:39;;;;;;;10.68;1.58;;;6.10;99.90;;;;;;5059287;28;21505;-87
2022/01/31 09:56:09;;;;;;;5.60;1.63;;;6.20;99.90;;;;;;5057497;28;20093;-86
2022/01/31 09:58:39;;;;;;;11.43;1.73;;;6.30;99.90;;;;;;5042847;28;20071;-86
2022/01/31 10:01:12;;;;;;;5.70;1.55;;;6.10;99.90;;;;;;5063231;28;20041;-87
2022/01/31 10:03:52;;;;;;;3.97;1.10;;;6.10;99.90;;;;;;5058084;28;20033;-86
2022/01/31 10:06:27;;;;;;;6.88;1.70;;;6.20;99.90;;;;;;5066676;28;20079;-90
2022/01/31 10:09:17;;;;;;;4.15;1.10;;;6.30;99.90;;;;;;5019796;28;20049;-85
2022/01/31 10:11:50;;;;;;;2.85;1.08;;;6.40;99.90;;;;;;5037024;28;20037;-86
2022/01/31 10:17:22;;;;;;;3.47;1.38;;;6.80;99.90;;;;;;5082535;28;20068;-85
2022/01/31 10:19:55;;;;;;;4.70;1.42;;;7.10;99.90;;;;;;5051099;28;20075;-85
2022/01/31 10:22:23;;;;;;;4.13;1.65;;;7.40;99.90;;;;;;5060854;28;20049;-86
2022/01/31 10:24:51;;;;;;;4.53;1.80;;;7.60;99.90;;;;;;5061904;28;20053;-86
2022/01/31 10:27:24;;;;;;;10.48;2.00;;;7.70;99.90;;;;;;5050621;28;20057;-85
2022/01/31 10:29:52;;;;;;;2.03;1.17;;;8.00;99.90;;;;;;5057844;28;20475;-85
2022/01/31 10:32:31;;;;;;;3.92;1.67;;;8.00;99.90;;;;;;5063749;28;20044;-86
2022/01/31 10:35:00;;;;;;;7.65;2.05;;;7.80;99.90;;;;;;5067104;28;20407;-85
2022/01/31 10:37:29;;;;;;;2.00;1.15;;;7.70;99.90;;;;;;5063988;28;20090;-87
2022/01/31 10:54:28;;;;;;;8.38;1.90;;;6.70;99.90;;;;;;5058105;28;20048;-86
2022/01/31 10:57:14;;;;;;;1.83;1.17;;;6.70;99.90;;;;;;5064756;28;20049;-87
2022/01/31 10:59:43;;;;;;;5.65;1.95;;;6.60;99.90;;;;;;5041088;28;20072;-89
2022/01/31 11:02:22;;;;;;;2.40;0.80;;;6.70;99.90;;;;;;5052342;28;20044;-85
2022/01/31 11:04:49;;;;;;;5.93;1.55;;;6.60;99.90;;;;;;5056259;28;20391;-84
2022/01/31 11:07:24;;;;;;;8.32;1.90;;;6.80;99.90;;;;;;5062269;28;20041;-87
2022/01/31 11:09:52;;;;;;;5.10;0.90;;;6.90;99.90;;;;;;5048210;28;20071;-86
2022/01/31 11:12:23;;;;;;;2.20;0.77;;;7.00;99.90;;;;;;5041294;28;20491;-87
2022/01/31 11:14:49;;;;;;;7.45;1.67;;;7.20;99.90;;;;;;5064864;28;20051;-88
2022/01/31 11:17:17;;;;;;;2.38;1.13;;;7.50;99.90;;;;;;5055228;28;20053;-88
2022/01/31 11:19:55;;;;;;;9.77;1.95;;;7.90;99.90;;;;;;5052461;28;20050;-88
2022/01/31 11:22:29;;;;;;;5.05;1.10;;;8.70;99.90;;;;;;5065818;28;20056;-88
2022/01/31 11:25:01;;;;;;;7.47;1.42;;;8.60;99.90;;;;;;5031236;28;20075;-86
2022/01/31 11:27:30;;;;;;;3.72;1.63;;;8.90;99.90;;;;;;5073040;28;20047;-87
2022/01/31 11:29:55;;;;;;;3.50;1.40;;;9.10;99.90;;;;;;5039935;28;20133;-91
2022/01/31 11:32:26;;;;;;;1.50;1.30;;;9.30;99.90;;;;;;5037404;28;20183;-93
2022/01/31 11:34:54;;;;;;;3.35;1.05;;;9.50;99.90;;;;;;5057689;28;20487;-83
2022/01/31 11:37:21;;;;;;;3.22;1.00;;;9.60;99.90;;;;;;5030502;28;20049;-86
2022/01/31 11:39:56;;;;;;;5.18;1.40;;;9.80;99.90;;;;;;5035965;28;20045;-85
2022/01/31 11:42:22;;;;;;;3.88;1.23;;;9.50;99.90;;;;;;5084770;28;20045;-85
2022/01/31 11:44:58;;;;;;;2.90;0.90;;;9.30;99.90;;;;;;5050933;28;20392;-84
2022/01/31 11:47:27;;;;;;;6.00;1.35;;;9.00;99.90;;;;;;5034467;28;20079;-84
2022/01/31 11:49:57;;;;;;;2.67;1.60;;;8.90;99.90;;;;;;5059231;28;20037;-85
2022/01/31 11:52:24;;;;;;;1.20;0.80;;;8.70;99.90;;;;;;5052645;28;20545;-84
2022/01/31 11:55:02;;;;;;;4.18;1.30;;;8.60;99.90;;;;;;5050390;28;20045;-85
2022/01/31 11:57:32;;;;;;;8.25;2.17;;;7.50;99.90;;;;;;5040099;28;20056;-84
2022/01/31 12:00:10;;;;;;;10.65;2.17;;;8.40;99.90;;;;;;5034419;28;20091;-86
2022/01/31 12:02:44;;;;;;;5.38;1.48;;;7.40;99.90;;;;;;5075135;28;20053;-84
2022/01/31 12:05:22;;;;;;;6.18;1.63;;;8.40;99.90;;;;;;5058215;28;20055;-85
2022/01/31 12:08:15;;;;;;;6.38;1.50;;;8.40;99.90;;;;;;5059384;28;20046;-84
2022/01/31 12:11:15;;;;;;;4.22;1.58;;;7.80;99.90;;;;;;5054573;28;20567;-86
2022/01/31 12:13:50;;;;;;;2.35;1.52;;;8.80;99.90;;;;;;5050577;28;20040;-91
2022/01/31 12:16:42;;;;;;;2.83;1.58;;;8.80;99.90;;;;;;5063502;28;20124;-90
2022/01/31 12:20:01;;;;;;;6.40;1.50;;;8.60;99.90;;;;;;5049514;28;20483;-87
2022/01/31 12:22:48;;;;;;;4.47;1.67;;;8.50;99.90;;;;;;4977424;28;20443;-88
2022/01/31 12:25:31;;;;;;;5.72;1.75;;;8.20;99.90;;;;;;5010259;28;20045;-86
2022/01/31 12:28:17;;;;;;;4.78;1.77;;;7.40;99.90;;;;;;5013988;28;20092;-86
2022/01/31 12:30:43;;;;;;;2.65;1.52;;;8.00;99.90;;;;;;5052610;28;20438;-87
2022/01/31 12:33:51;;;;;;;8.37;2.00;;;8.00;99.90;;;;;;5061375;28;20050;-88
2022/01/31 12:36:31;;;;;;;8.50;2.03;;;9.10;99.90;;;;;;5050262;28;20045;-88
2022/01/31 12:39:00;;;;;;;3.97;1.65;;;7.90;99.90;;;;;;5051660;28;20037;-87
2022/01/31 12:41:34;;;;;;;5.90;2.10;;;7.80;99.90;;;;;;5044429;28;20052;-87
2022/01/31 12:44:42;;;;;;;7.07;1.55;;;8.00;99.90;;;;;;5041880;28;20041;-87
2022/01/31 12:47:09;;;;;;;5.78;1.45;;;8.00;99.90;;;;;;5047955;28;20652;-86
2022/01/31 12:49:37;;;;;;;4.72;1.40;;;8.10;99.90;;;;;;5032643;28;20059;-88
2022/01/31 12:52:11;;;;;;;6.05;1.77;;;8.10;99.90;;;;;;5041644;28;20052;-88
2022/01/31 12:54:41;;;;;;;2.83;1.70;;;8.00;99.90;;;;;;5043342;28;20265;-88
2022/01/31 12:57:13;;;;;;;2.30;1.25;;;7.90;99.90;;;;;;5053210;28;20419;-87
2022/01/31 12:59:40;;;;;;;7.65;2.42;;;7.90;99.90;;;;;;5034603;28;20084;-87
2022/01/31 13:02:09;;;;;;;4.05;1.73;;;7.90;99.90;;;;;;5038756;28;20052;-87
2022/01/31 13:04:39;;;;;;;6.32;1.90;;;7.90;99.90;;;;;;5050359;28;20049;-87
2022/01/31 13:07:12;;;;;;;7.50;1.80;;;8.20;99.90;;;;;;5016501;28;20076;-87
2022/01/31 13:09:38;;;;;;;2.75;1.02;;;6.80;99.90;;;;;;5014588;28;20197;-87
2022/01/31 13:12:15;;;;;;;3.03;1.25;;;7.80;99.90;;;;;;5015670;28;20046;-87
2022/01/31 13:14:50;;;;;;;6.35;1.70;;;7.80;99.90;;;;;;5066175;28;20036;-88
2022/01/31 13:17:34;;;;;;;5.20;1.55;;;7.80;99.90;;;;;;5038109;28;20044;-90
2022/01/31 13:20:16;;;;;;;3.85;1.20;;;7.90;99.90;;;;;;5047954;28;20403;-90
2022/01/31 13:22:45;;;;;;;9.77;2.28;;;7.80;99.90;;;;;;5045491;28;20388;-85
2022/01/31 13:25:17;;;;;;;5.95;2.55;;;7.80;99.90;;;;;;5006715;28;20045;-87
2022/01/31 13:27:48;;;;;;;4.13;1.75;;;8.20;99.90;;;;;;5052100;28;20044;-87
2022/01/31 13:30:25;;;;;;;5.85;2.13;;;7.60;99.90;;;;;;5040871;28;20083;-96
2022/01/31 13:32:53;;;;;;;6.55;2.10;;;7.50;99.90;;;;;;5039113;28;20071;-87
2022/01/31 13:35:33;;;;;;;7.65;2.15;;;7.50;99.90;;;;;;5039495;28;20127;-87